Time;durP1;ratioP1;P1;durP2;ratioP2;P2;SDS_P1;SDS_P2;PMS_P1;PMS_P2;Temp;Humidity;BMP_temperature;BMP_pressure;BME280_temperature;BME280_humidity;BME280_pressure;Samples;Min_cycle;Max_cycle;Signal;HPM_P1;HPM_P2
2022/02/23 00:01:31;;;;;;;6.13;2.13;;;6.90;99.90;;;;;;5005625;28;20680;-82
2022/02/23 00:03:58;;;;;;;5.97;2.37;;;6.90;99.90;;;;;;5002636;28;20220;-82
2022/02/23 00:06:25;;;;;;;11.20;2.27;;;6.90;99.90;;;;;;5007234;28;20222;-82
2022/02/23 00:08:51;;;;;;;9.50;2.23;;;6.90;99.90;;;;;;5000902;28;20218;-83
2022/02/23 00:11:18;;;;;;;6.60;2.17;;;6.90;99.90;;;;;;5009873;28;20213;-82
2022/02/23 00:13:46;;;;;;;10.10;2.40;;;6.90;99.90;;;;;;5002230;28;20210;-83
2022/02/23 00:16:13;;;;;;;8.50;2.30;;;6.90;99.90;;;;;;5001835;28;20416;-82
2022/02/23 00:18:40;;;;;;;5.37;2.10;;;6.90;99.90;;;;;;5000906;28;20730;-79
2022/02/23 00:21:07;;;;;;;11.27;2.40;;;6.90;99.90;;;;;;5001068;28;20483;-77
2022/02/23 00:23:33;;;;;;;11.73;2.77;;;6.90;99.90;;;;;;5001366;28;20210;-79
2022/02/23 00:26:00;;;;;;;12.83;3.03;;;6.90;99.90;;;;;;5000693;28;20656;-80
2022/02/23 00:28:26;;;;;;;12.27;2.97;;;6.80;99.90;;;;;;5003064;28;20214;-80
2022/02/23 00:30:55;;;;;;;13.30;3.53;;;6.80;99.90;;;;;;5000043;28;20263;-83
2022/02/23 00:33:21;;;;;;;11.23;3.10;;;6.90;99.90;;;;;;5002549;28;20209;-84
2022/02/23 00:35:48;;;;;;;7.30;2.57;;;6.80;99.90;;;;;;5001451;28;20210;-83
2022/02/23 00:38:15;;;;;;;11.47;3.00;;;6.90;99.90;;;;;;5002191;28;20608;-81
2022/02/23 00:40:41;;;;;;;11.73;2.90;;;6.80;99.90;;;;;;5001692;28;20241;-80
2022/02/23 00:43:08;;;;;;;14.70;3.30;;;6.80;99.90;;;;;;5000123;28;20287;-80
2022/02/23 00:45:35;;;;;;;10.83;2.80;;;6.80;99.90;;;;;;5002420;28;20731;-80
2022/02/23 00:48:04;;;;;;;7.20;2.20;;;6.70;99.90;;;;;;5000513;28;20229;-79
2022/02/23 00:50:31;;;;;;;7.47;2.10;;;6.70;99.90;;;;;;4999643;28;20278;-80
2022/02/23 00:52:58;;;;;;;9.63;2.83;;;6.50;99.90;;;;;;5002530;28;20213;-75
2022/02/23 00:55:24;;;;;;;10.90;2.67;;;6.30;99.90;;;;;;5000460;28;20652;-75
2022/02/23 00:57:51;;;;;;;6.73;2.63;;;6.30;99.90;;;;;;4987841;28;20276;-74
2022/02/23 01:00:20;;;;;;;11.33;3.30;;;6.20;99.90;;;;;;5000075;28;20269;-75
2022/02/23 01:02:47;;;;;;;8.23;2.43;;;6.20;99.90;;;;;;5000875;28;20210;-75
2022/02/23 01:05:15;;;;;;;10.00;2.43;;;6.10;99.90;;;;;;5000981;28;20219;-75
2022/02/23 01:07:42;;;;;;;9.50;2.67;;;6.10;99.90;;;;;;5007012;28;20213;-83
2022/02/23 01:10:09;;;;;;;10.53;2.57;;;6.10;99.90;;;;;;5001976;28;20206;-83
2022/02/23 01:12:37;;;;;;;12.47;2.93;;;6.10;99.90;;;;;;5005069;28;20213;-83
2022/02/23 01:15:05;;;;;;;10.73;2.80;;;6.10;99.90;;;;;;5001527;28;20241;-83
2022/02/23 01:17:31;;;;;;;11.03;2.57;;;6.10;99.90;;;;;;5000352;28;20209;-83
2022/02/23 01:19:59;;;;;;;11.40;2.80;;;6.10;99.90;;;;;;5002158;28;20245;-84
2022/02/23 01:22:27;;;;;;;11.30;2.53;;;6.10;99.90;;;;;;4988371;28;20313;-84
2022/02/23 01:24:54;;;;;;;12.23;3.00;;;6.10;99.90;;;;;;4998478;28;20690;-75
2022/02/23 01:27:21;;;;;;;14.60;3.40;;;6.10;99.90;;;;;;4988098;28;20270;-74
2022/02/23 01:29:48;;;;;;;8.17;2.70;;;6.10;99.90;;;;;;4999800;28;20656;-74
2022/02/23 01:32:14;;;;;;;10.70;3.23;;;6.10;99.90;;;;;;5001142;28;20206;-74
2022/02/23 01:34:41;;;;;;;11.20;2.80;;;6.10;99.90;;;;;;5000007;28;20290;-74
2022/02/23 01:37:08;;;;;;;10.33;3.17;;;6.10;99.90;;;;;;5000441;28;20217;-75
2022/02/23 01:39:36;;;;;;;9.77;2.63;;;6.10;99.90;;;;;;5002238;28;20233;-75
2022/02/23 01:42:03;;;;;;;13.63;3.00;;;6.20;99.90;;;;;;5000142;28;20294;-75
2022/02/23 01:44:30;;;;;;;12.37;2.73;;;6.20;99.90;;;;;;5000242;28;20210;-74
2022/02/23 01:46:57;;;;;;;9.27;3.50;;;6.20;99.90;;;;;;5000818;28;20206;-75
2022/02/23 01:49:24;;;;;;;10.70;3.50;;;6.20;99.90;;;;;;4992978;28;20571;-74
2022/02/23 01:51:51;;;;;;;11.13;2.47;;;6.20;99.90;;;;;;5001666;28;20636;-75
2022/02/23 01:54:18;;;;;;;11.80;3.30;;;6.20;99.90;;;;;;4998385;28;20245;-75
2022/02/23 01:56:46;;;;;;;15.00;3.00;;;6.20;99.90;;;;;;4991483;28;20209;-74
2022/02/23 01:59:13;;;;;;;10.03;2.73;;;6.20;99.90;;;;;;5000224;28;20244;-74
2022/02/23 02:01:40;;;;;;;13.60;3.23;;;6.20;99.90;;;;;;5000508;28;20220;-75
2022/02/23 02:04:06;;;;;;;10.93;2.33;;;6.20;99.90;;;;;;5005126;28;20210;-75
2022/02/23 02:06:33;;;;;;;9.17;2.40;;;6.20;99.90;;;;;;5003409;28;20214;-75
2022/02/23 02:09:00;;;;;;;7.93;3.00;;;6.20;99.90;;;;;;4987997;28;20206;-75
2022/02/23 02:11:26;;;;;;;9.43;3.03;;;6.20;99.90;;;;;;4998869;28;20263;-75
2022/02/23 02:13:54;;;;;;;9.53;2.70;;;6.20;99.90;;;;;;4990875;28;20213;-77
2022/02/23 02:16:21;;;;;;;11.03;2.83;;;6.20;99.90;;;;;;5000661;28;20631;-77
2022/02/23 02:18:48;;;;;;;14.07;3.50;;;6.20;99.90;;;;;;5002746;28;20624;-76
2022/02/23 02:21:15;;;;;;;10.90;2.70;;;6.20;99.90;;;;;;5004782;28;20302;-79
2022/02/23 02:23:43;;;;;;;8.83;2.87;;;6.20;99.90;;;;;;4999041;28;20275;-79
2022/02/23 02:26:09;;;;;;;13.70;3.17;;;6.10;99.90;;;;;;5002918;28;20198;-79
2022/02/23 02:28:36;;;;;;;7.43;2.33;;;6.10;99.90;;;;;;5004596;28;20209;-79
2022/02/23 02:31:06;;;;;;;10.03;2.73;;;6.10;99.90;;;;;;5006819;28;20234;-79
2022/02/23 02:33:33;;;;;;;14.90;3.03;;;6.00;99.90;;;;;;5006787;28;20202;-83
2022/02/23 02:36:00;;;;;;;19.67;3.67;;;6.00;99.90;;;;;;5007986;28;20202;-84
2022/02/23 02:38:27;;;;;;;11.70;2.93;;;6.00;99.90;;;;;;5007835;28;20212;-83
2022/02/23 02:40:55;;;;;;;12.97;2.73;;;5.90;99.90;;;;;;5005918;28;20234;-84
2022/02/23 02:43:22;;;;;;;12.43;3.03;;;6.00;99.90;;;;;;5010529;28;20272;-84
2022/02/23 02:45:48;;;;;;;11.93;3.00;;;6.00;99.90;;;;;;5005143;28;20209;-83
2022/02/23 02:48:16;;;;;;;13.53;3.03;;;5.90;99.90;;;;;;5008672;28;20603;-77
2022/02/23 02:50:43;;;;;;;14.00;3.10;;;5.90;99.90;;;;;;5003549;28;20279;-78
2022/02/23 02:53:09;;;;;;;9.17;2.30;;;5.90;99.90;;;;;;5003282;28;20213;-77
2022/02/23 02:55:36;;;;;;;9.00;2.60;;;5.90;99.90;;;;;;4995645;28;20229;-86
2022/02/23 02:58:04;;;;;;;10.47;2.77;;;5.90;99.90;;;;;;5007350;28;20217;-78
2022/02/23 03:00:31;;;;;;;10.40;2.60;;;5.80;99.90;;;;;;5003564;28;20242;-79
2022/02/23 03:02:57;;;;;;;13.57;2.63;;;5.80;99.90;;;;;;5005528;28;20253;-79
2022/02/23 03:05:24;;;;;;;10.07;2.23;;;5.80;99.90;;;;;;5010737;28;20209;-79
2022/02/23 03:07:51;;;;;;;10.50;2.50;;;5.80;99.90;;;;;;5005948;28;20219;-83
2022/02/23 03:10:17;;;;;;;11.07;3.10;;;5.90;99.90;;;;;;5004456;28;20664;-82
2022/02/23 03:12:44;;;;;;;10.97;2.67;;;5.80;99.90;;;;;;5009905;28;20796;-82
2022/02/23 03:15:12;;;;;;;9.73;2.90;;;5.80;99.90;;;;;;5005718;28;20206;-82
2022/02/23 03:17:39;;;;;;;9.63;2.40;;;5.80;99.90;;;;;;5020500;28;20240;-82
2022/02/23 03:20:07;;;;;;;10.37;2.47;;;5.90;99.90;;;;;;5078955;28;20233;-81
2022/02/23 03:22:34;;;;;;;9.33;2.50;;;5.80;99.90;;;;;;5011574;28;20214;-82
2022/02/23 03:25:01;;;;;;;13.50;2.40;;;5.80;99.90;;;;;;5010470;28;20206;-82
2022/02/23 03:27:27;;;;;;;10.40;2.70;;;5.90;99.90;;;;;;5005549;28;20233;-81
2022/02/23 03:29:54;;;;;;;13.27;2.90;;;5.90;99.90;;;;;;5002787;28;20217;-81
2022/02/23 03:32:22;;;;;;;12.27;3.00;;;5.90;99.90;;;;;;4988844;28;20217;-84
2022/02/23 03:34:49;;;;;;;13.87;2.80;;;5.80;99.90;;;;;;5011539;28;20237;-82
2022/02/23 03:37:16;;;;;;;8.43;2.23;;;5.80;99.90;;;;;;5004553;28;20202;-83
2022/02/23 03:39:42;;;;;;;14.17;2.90;;;5.70;99.90;;;;;;5003409;28;20252;-82
2022/02/23 03:42:09;;;;;;;9.80;2.60;;;5.70;99.90;;;;;;5010460;28;20643;-83
2022/02/23 03:44:36;;;;;;;11.17;2.77;;;5.70;99.90;;;;;;5017844;28;20689;-83
2022/02/23 03:47:02;;;;;;;14.77;3.07;;;5.60;99.90;;;;;;5008858;28;20707;-82
2022/02/23 03:49:30;;;;;;;10.33;2.70;;;5.60;99.90;;;;;;5009631;28;20275;-82
2022/02/23 03:51:57;;;;;;;8.77;2.93;;;5.60;99.90;;;;;;5009707;28;20214;-82
2022/02/23 03:54:24;;;;;;;17.13;3.07;;;5.60;99.90;;;;;;5004564;28;20233;-82
2022/02/23 03:56:50;;;;;;;10.07;3.27;;;5.60;99.90;;;;;;4993502;28;20214;-82
2022/02/23 03:59:17;;;;;;;11.47;2.70;;;5.60;99.90;;;;;;5003898;28;20290;-79
2022/02/23 04:01:46;;;;;;;12.03;3.27;;;5.60;99.90;;;;;;5003214;28;20229;-79
2022/02/23 04:04:14;;;;;;;8.47;2.33;;;5.60;99.90;;;;;;5004017;28;20213;-77
2022/02/23 04:06:42;;;;;;;10.30;2.83;;;5.50;99.90;;;;;;5011148;28;20214;-79
2022/02/23 04:09:11;;;;;;;11.30;2.80;;;5.40;99.90;;;;;;5003185;28;20294;-80
2022/02/23 04:11:38;;;;;;;9.13;2.43;;;5.40;99.90;;;;;;5004538;28;20222;-82
2022/02/23 04:14:05;;;;;;;12.17;2.60;;;5.30;99.90;;;;;;5004291;28;20220;-83
2022/02/23 04:16:32;;;;;;;11.17;2.60;;;5.30;99.90;;;;;;5020342;28;20217;-84
2022/02/23 04:18:59;;;;;;;11.23;2.47;;;5.20;99.90;;;;;;5002034;28;20298;-84
2022/02/23 04:21:26;;;;;;;9.83;2.87;;;5.20;99.90;;;;;;4995409;28;20221;-83
2022/02/23 04:23:54;;;;;;;8.40;2.17;;;5.20;99.90;;;;;;4998570;28;20214;-84
2022/02/23 04:26:22;;;;;;;11.03;2.43;;;5.20;99.90;;;;;;4985079;28;20219;-84
2022/02/23 04:28:49;;;;;;;13.43;2.80;;;5.20;99.90;;;;;;5000179;28;20600;-85
2022/02/23 04:31:15;;;;;;;11.97;2.70;;;5.20;99.90;;;;;;4999718;28;20220;-84
2022/02/23 04:33:42;;;;;;;9.40;3.10;;;5.20;99.90;;;;;;4990646;28;20210;-85
2022/02/23 04:36:10;;;;;;;10.67;2.70;;;5.20;99.90;;;;;;4995227;28;20270;-83
2022/02/23 04:38:38;;;;;;;13.27;3.53;;;5.20;99.90;;;;;;4998407;28;20216;-83
2022/02/23 04:41:06;;;;;;;9.43;2.70;;;5.30;99.90;;;;;;4998360;28;20239;-84
2022/02/23 04:43:34;;;;;;;13.37;3.37;;;5.30;99.90;;;;;;5000764;28;20211;-84
2022/02/23 04:46:04;;;;;;;11.63;2.77;;;5.30;99.90;;;;;;4990881;28;20202;-83
2022/02/23 04:48:31;;;;;;;11.77;3.17;;;5.30;99.90;;;;;;4993016;28;20282;-83
2022/02/23 04:50:58;;;;;;;9.43;2.60;;;5.30;99.90;;;;;;4993773;28;20206;-82
2022/02/23 04:53:24;;;;;;;15.10;2.80;;;5.30;99.90;;;;;;5012109;28;20206;-83
2022/02/23 04:55:51;;;;;;;12.37;2.83;;;5.30;99.90;;;;;;5001080;28;20245;-83
2022/02/23 04:58:19;;;;;;;11.50;2.97;;;5.30;99.90;;;;;;4999580;28;20209;-84
2022/02/23 05:00:46;;;;;;;10.37;2.80;;;5.30;99.90;;;;;;5000127;28;20278;-81
2022/02/23 05:03:13;;;;;;;10.57;3.03;;;5.30;99.90;;;;;;5004246;28;20213;-82
2022/02/23 05:05:39;;;;;;;10.53;3.37;;;5.30;99.90;;;;;;5004685;28;20266;-82
2022/02/23 05:08:06;;;;;;;11.63;2.70;;;5.30;99.90;;;;;;5016669;28;20216;-82
2022/02/23 05:10:32;;;;;;;10.30;3.20;;;5.30;99.90;;;;;;4999641;28;20259;-83
2022/02/23 05:12:59;;;;;;;12.73;3.23;;;5.30;99.90;;;;;;5009238;28;20202;-83
2022/02/23 05:15:27;;;;;;;13.57;3.00;;;5.30;99.90;;;;;;5007217;28;20218;-83
2022/02/23 05:17:54;;;;;;;12.53;2.67;;;5.30;99.90;;;;;;5012526;28;20198;-82
2022/02/23 05:20:21;;;;;;;8.83;2.37;;;5.30;99.90;;;;;;5013415;28;20722;-83
2022/02/23 05:22:48;;;;;;;11.87;3.17;;;5.30;99.90;;;;;;4998972;28;20205;-83
2022/02/23 05:25:15;;;;;;;8.43;2.90;;;5.30;99.90;;;;;;5006733;28;20214;-83
2022/02/23 05:27:42;;;;;;;14.40;3.20;;;5.20;99.90;;;;;;5010768;28;20287;-82
2022/02/23 05:30:09;;;;;;;12.80;3.00;;;5.20;99.90;;;;;;5001850;28;20259;-83
2022/02/23 05:32:38;;;;;;;10.77;3.67;;;5.20;99.90;;;;;;5016847;28;20221;-83
2022/02/23 05:35:06;;;;;;;13.10;3.03;;;5.20;99.90;;;;;;4998959;28;20274;-82
2022/02/23 05:37:33;;;;;;;9.40;2.63;;;5.20;99.90;;;;;;5001409;28;20876;-83
2022/02/23 05:39:59;;;;;;;9.60;3.23;;;5.20;99.90;;;;;;5009835;28;20206;-83
2022/02/23 05:42:26;;;;;;;14.50;2.80;;;5.10;99.90;;;;;;5007750;28;20205;-83
2022/02/23 05:44:53;;;;;;;10.67;2.83;;;5.10;99.90;;;;;;5023875;28;20217;-82
2022/02/23 05:47:19;;;;;;;14.67;3.10;;;5.10;99.90;;;;;;5007275;28;20644;-82
2022/02/23 05:49:47;;;;;;;13.73;3.20;;;5.20;99.90;;;;;;5024404;28;20202;-82
2022/02/23 05:52:15;;;;;;;9.93;2.90;;;5.20;99.90;;;;;;5005158;28;20226;-83
2022/02/23 05:54:41;;;;;;;11.93;2.90;;;5.20;99.90;;;;;;5012963;28;20252;-82
2022/02/23 05:57:08;;;;;;;12.83;2.60;;;5.20;99.90;;;;;;5021730;28;20271;-83
2022/02/23 05:59:35;;;;;;;10.67;2.50;;;5.20;99.90;;;;;;5002734;28;20620;-82
2022/02/23 06:02:02;;;;;;;16.20;3.00;;;5.20;99.90;;;;;;5005833;28;20259;-81
2022/02/23 06:04:29;;;;;;;13.80;3.23;;;5.20;99.90;;;;;;5003765;28;20213;-81
2022/02/23 06:06:57;;;;;;;9.83;2.70;;;5.20;99.90;;;;;;5000419;28;20198;-81
2022/02/23 06:09:24;;;;;;;9.40;2.53;;;5.20;99.90;;;;;;5013167;28;20210;-81
2022/02/23 06:11:51;;;;;;;8.47;2.97;;;5.20;99.90;;;;;;5000949;28;20210;-81
2022/02/23 06:14:18;;;;;;;10.97;2.57;;;5.30;99.90;;;;;;5012211;28;20296;-82
2022/02/23 06:16:45;;;;;;;9.90;3.10;;;5.30;99.90;;;;;;5012876;28;20247;-82
2022/02/23 06:19:11;;;;;;;9.67;2.47;;;5.40;99.90;;;;;;5001768;28;20209;-83
2022/02/23 06:21:38;;;;;;;10.30;2.70;;;5.40;99.90;;;;;;5016839;28;20282;-83
2022/02/23 06:24:06;;;;;;;11.00;2.47;;;5.40;99.90;;;;;;5007655;28;20210;-82
2022/02/23 06:26:33;;;;;;;9.40;2.60;;;5.40;99.90;;;;;;5000449;28;20674;-83
2022/02/23 06:29:00;;;;;;;12.97;2.77;;;5.50;99.90;;;;;;5003046;28;20243;-82
2022/02/23 06:31:26;;;;;;;6.17;2.80;;;5.50;99.90;;;;;;5000608;28;20267;-81
2022/02/23 06:33:53;;;;;;;15.07;2.60;;;5.50;99.90;;;;;;5012292;28;20218;-81
2022/02/23 06:36:20;;;;;;;11.90;2.90;;;5.50;99.90;;;;;;5007870;28;20213;-80
2022/02/23 06:38:47;;;;;;;9.00;2.90;;;5.50;99.90;;;;;;5001912;28;20210;-81
2022/02/23 06:41:17;;;;;;;10.57;2.90;;;5.40;99.90;;;;;;5014867;28;20778;-80
2022/02/23 06:43:45;;;;;;;11.97;3.00;;;5.40;99.90;;;;;;5001565;28;20218;-82
2022/02/23 06:46:12;;;;;;;10.30;3.30;;;5.40;99.90;;;;;;5008992;28;20213;-81
2022/02/23 06:48:40;;;;;;;8.67;2.27;;;5.40;99.90;;;;;;4998864;28;20652;-81
2022/02/23 06:51:07;;;;;;;10.13;3.00;;;5.40;99.90;;;;;;5003974;28;20225;-81
2022/02/23 06:53:34;;;;;;;12.87;3.03;;;5.40;99.90;;;;;;5015623;28;20210;-81
2022/02/23 06:56:01;;;;;;;8.37;2.97;;;5.40;99.90;;;;;;5004713;28;20230;-81
2022/02/23 06:58:29;;;;;;;11.13;3.30;;;5.30;99.90;;;;;;5015193;28;20221;-81
2022/02/23 07:00:57;;;;;;;10.50;2.53;;;5.40;99.90;;;;;;5003030;28;20226;-81
2022/02/23 07:03:24;;;;;;;9.17;2.47;;;5.40;99.90;;;;;;5003463;28;20213;-80
2022/02/23 07:05:51;;;;;;;13.73;2.97;;;5.40;99.90;;;;;;5007500;28;20286;-80
2022/02/23 07:08:17;;;;;;;7.33;2.37;;;5.40;99.90;;;;;;5004688;28;20231;-81
2022/02/23 07:10:44;;;;;;;13.57;3.33;;;5.40;99.90;;;;;;5009498;28;20205;-80
2022/02/23 07:13:12;;;;;;;12.90;2.77;;;5.40;99.90;;;;;;5002035;28;20275;-81
2022/02/23 07:15:40;;;;;;;9.57;3.03;;;5.40;99.90;;;;;;5002076;28;20651;-82
2022/02/23 07:18:07;;;;;;;8.80;2.53;;;5.40;99.90;;;;;;5009377;28;20733;-81
2022/02/23 07:20:33;;;;;;;13.33;2.90;;;5.50;99.90;;;;;;5005641;28;20279;-82
2022/02/23 07:23:00;;;;;;;12.47;3.17;;;5.50;99.90;;;;;;5005135;28;20237;-81
2022/02/23 07:25:28;;;;;;;11.23;2.67;;;5.50;99.90;;;;;;4999526;28;20210;-80
2022/02/23 07:27:54;;;;;;;10.33;3.20;;;5.60;99.90;;;;;;5016199;28;20205;-81
2022/02/23 07:30:21;;;;;;;11.97;2.80;;;5.60;99.90;;;;;;5008577;28;20259;-81
2022/02/23 07:32:49;;;;;;;13.17;2.97;;;5.60;99.90;;;;;;5011582;28;20247;-82
2022/02/23 07:35:16;;;;;;;8.20;2.37;;;5.70;99.90;;;;;;5002346;28;20615;-82
2022/02/23 07:37:44;;;;;;;12.97;2.53;;;5.70;99.90;;;;;;5006845;28;20210;-82
2022/02/23 07:40:14;;;;;;;10.17;2.20;;;5.70;99.90;;;;;;5012641;28;20210;-81
2022/02/23 07:42:41;;;;;;;10.93;2.70;;;5.80;99.90;;;;;;5013558;28;20251;-81
2022/02/23 07:45:09;;;;;;;9.83;2.77;;;5.80;99.90;;;;;;5007322;28;20259;-82
2022/02/23 07:47:36;;;;;;;6.00;2.37;;;5.90;99.90;;;;;;5010202;28;20658;-81
2022/02/23 07:50:11;;;;;;;9.83;3.03;;;5.90;99.90;;;;;;5004960;28;20213;-82
2022/02/23 07:52:37;;;;;;;6.20;2.83;;;5.90;99.90;;;;;;5007152;28;20292;-81
2022/02/23 07:55:06;;;;;;;7.77;3.30;;;5.90;99.90;;;;;;5006135;28;20234;-82
2022/02/23 07:57:33;;;;;;;7.00;2.27;;;6.00;99.90;;;;;;5011827;28;20216;-83
2022/02/23 07:59:59;;;;;;;11.80;2.67;;;6.00;99.90;;;;;;5010396;28;20210;-82
2022/02/23 08:02:31;;;;;;;8.90;2.30;;;6.10;99.90;;;;;;5011789;28;20282;-81
2022/02/23 08:04:57;;;;;;;6.83;2.50;;;6.00;99.90;;;;;;5005371;28;20289;-82
2022/02/23 08:07:27;;;;;;;9.73;2.50;;;6.00;99.90;;;;;;5024682;28;20210;-82
2022/02/23 08:09:54;;;;;;;9.10;2.20;;;6.10;99.90;;;;;;5075297;28;20474;-81
2022/02/23 08:12:21;;;;;;;12.70;2.63;;;6.20;99.90;;;;;;5058935;28;20248;-83
2022/02/23 08:14:48;;;;;;;8.20;2.43;;;6.20;99.90;;;;;;5043236;28;20568;-82
2022/02/23 08:19:59;;;;;;;11.57;2.93;;;6.10;99.90;;;;;;5003631;28;20228;-83
2022/02/23 08:22:29;;;;;;;21.97;4.60;;;6.20;99.90;;;;;;5010002;28;20237;-82
2022/02/23 08:24:57;;;;;;;11.33;3.03;;;6.20;99.90;;;;;;5058959;28;20251;-82
2022/02/23 08:27:25;;;;;;;9.97;2.63;;;6.30;99.90;;;;;;5049259;28;20670;-82
2022/02/23 08:29:53;;;;;;;9.13;2.83;;;6.40;99.90;;;;;;5019356;27;20754;-81
2022/02/23 08:32:20;;;;;;;12.10;2.50;;;6.40;99.90;;;;;;5013060;28;20210;-81
2022/02/23 08:34:49;;;;;;;6.53;1.80;;;6.50;99.90;;;;;;5000876;28;20225;-82
2022/02/23 08:37:17;;;;;;;7.30;2.53;;;6.50;99.90;;;;;;5002229;28;20266;-82
2022/02/23 08:39:46;;;;;;;9.20;2.67;;;6.60;99.90;;;;;;5004337;28;20275;-81
2022/02/23 08:42:15;;;;;;;7.50;2.53;;;6.80;99.90;;;;;;4999454;28;20229;-82
2022/02/23 08:44:42;;;;;;;15.67;3.17;;;7.00;99.90;;;;;;5006861;28;20214;-81
2022/02/23 08:47:10;;;;;;;8.10;2.60;;;7.10;99.90;;;;;;5006010;28;20225;-82
2022/02/23 08:49:36;;;;;;;7.27;2.77;;;7.20;99.90;;;;;;5001615;28;20258;-81
2022/02/23 08:52:04;;;;;;;6.73;2.20;;;7.30;99.90;;;;;;5011347;28;20245;-82
2022/02/23 08:54:31;;;;;;;8.77;2.20;;;7.20;99.90;;;;;;4998034;28;20249;-81
2022/02/23 08:56:59;;;;;;;9.03;2.83;;;7.30;99.90;;;;;;4997025;28;20304;-81
2022/02/23 08:59:26;;;;;;;10.77;3.00;;;7.40;99.90;;;;;;4994492;28;20710;-82
2022/02/23 09:01:52;;;;;;;9.57;2.30;;;7.50;99.90;;;;;;4995145;28;20316;-81
2022/02/23 09:04:19;;;;;;;6.47;1.87;;;7.50;99.90;;;;;;5003774;28;20664;-81
2022/02/23 09:06:47;;;;;;;10.40;2.73;;;7.50;99.90;;;;;;5003847;28;20240;-81
2022/02/23 09:09:14;;;;;;;8.63;2.23;;;7.70;99.90;;;;;;5011318;28;20296;-81
2022/02/23 09:11:43;;;;;;;10.23;2.30;;;7.70;99.90;;;;;;5011919;28;20214;-81
2022/02/23 09:14:11;;;;;;;6.00;2.00;;;7.90;99.90;;;;;;5003315;28;20245;-80
2022/02/23 09:16:38;;;;;;;9.03;2.40;;;7.90;99.90;;;;;;5003203;28;20206;-80
2022/02/23 09:19:05;;;;;;;6.87;2.50;;;7.80;99.90;;;;;;5075978;28;20195;-80
2022/02/23 09:21:33;;;;;;;9.17;2.43;;;7.80;99.90;;;;;;5010441;28;20279;-80
2022/02/23 09:24:00;;;;;;;11.00;2.23;;;7.80;99.90;;;;;;5005629;28;20243;-81
2022/02/23 09:26:28;;;;;;;9.50;2.80;;;8.00;99.90;;;;;;4992474;28;20202;-81
2022/02/23 09:28:55;;;;;;;6.73;2.90;;;8.10;99.90;;;;;;5008414;28;20210;-81
2022/02/23 09:31:23;;;;;;;7.07;2.20;;;8.10;99.90;;;;;;5007740;28;20213;-82
2022/02/23 09:33:51;;;;;;;9.27;2.80;;;8.20;99.90;;;;;;4999008;28;20623;-81
2022/02/23 09:36:18;;;;;;;6.70;2.50;;;8.10;99.90;;;;;;5001543;28;20206;-81
2022/02/23 09:38:45;;;;;;;10.10;2.50;;;8.00;99.90;;;;;;5000800;28;20206;-81
2022/02/23 09:41:16;;;;;;;10.97;2.40;;;8.00;99.90;;;;;;5009208;28;20711;-81
2022/02/23 09:43:43;;;;;;;11.37;2.90;;;8.10;99.90;;;;;;4996687;28;20218;-80
2022/02/23 09:46:12;;;;;;;12.53;3.10;;;8.10;99.90;;;;;;5008137;28;21152;-81
2022/02/23 09:48:41;;;;;;;12.50;2.63;;;8.10;99.90;;;;;;5013700;28;20213;-80
2022/02/23 09:51:08;;;;;;;7.93;2.30;;;8.10;99.90;;;;;;4995582;28;20220;-81
2022/02/23 09:53:35;;;;;;;9.97;2.40;;;7.90;99.90;;;;;;5003473;28;20266;-81
2022/02/23 09:56:04;;;;;;;5.63;2.20;;;8.00;99.90;;;;;;5000918;28;20766;-82
2022/02/23 09:58:31;;;;;;;10.70;2.73;;;8.10;99.90;;;;;;4998608;28;20218;-81
2022/02/23 10:00:59;;;;;;;9.77;3.37;;;8.10;99.90;;;;;;5002746;28;20217;-81
2022/02/23 10:03:25;;;;;;;5.20;2.10;;;8.00;99.90;;;;;;4996013;28;20233;-81
2022/02/23 10:05:53;;;;;;;7.50;2.43;;;7.90;99.90;;;;;;5002668;28;20217;-82
2022/02/23 10:08:31;;;;;;;7.70;2.53;;;7.80;99.90;;;;;;4996728;28;20202;-81
2022/02/23 10:10:59;;;;;;;8.07;2.43;;;7.80;99.90;;;;;;5009337;28;20206;-81
2022/02/23 10:13:26;;;;;;;8.00;2.87;;;8.00;99.90;;;;;;5001233;28;20206;-81
2022/02/23 10:15:54;;;;;;;8.63;2.30;;;8.10;99.90;;;;;;5003611;28;20259;-80
2022/02/23 10:18:20;;;;;;;6.50;2.47;;;8.20;99.90;;;;;;5000734;28;20229;-80
2022/02/23 10:20:49;;;;;;;8.50;2.20;;;8.40;99.90;;;;;;4998486;28;20263;-80
2022/02/23 10:23:19;;;;;;;9.17;2.87;;;8.50;99.90;;;;;;5011467;28;20577;-79
2022/02/23 10:25:51;;;;;;;10.47;2.27;;;8.60;99.90;;;;;;5008690;28;20218;-81
2022/02/23 10:28:21;;;;;;;12.10;2.63;;;8.70;99.90;;;;;;5000934;28;20217;-81
2022/02/23 10:30:50;;;;;;;8.50;2.63;;;8.90;99.90;;;;;;5006264;28;20214;-82
2022/02/23 10:33:18;;;;;;;10.27;2.63;;;9.00;99.90;;;;;;4997141;28;20300;-81
2022/02/23 10:35:57;;;;;;;8.97;2.60;;;8.90;99.90;;;;;;5004747;28;20218;-80
2022/02/23 10:38:28;;;;;;;10.57;2.50;;;8.70;99.90;;;;;;5008176;28;20818;-80
2022/02/23 10:40:56;;;;;;;7.23;2.73;;;8.60;99.90;;;;;;4998330;28;20311;-81
2022/02/23 10:43:27;;;;;;;10.37;2.60;;;8.80;99.90;;;;;;5007484;28;20267;-82
2022/02/23 10:46:05;;;;;;;7.47;2.43;;;8.90;99.90;;;;;;5002073;28;20225;-80
2022/02/23 10:48:37;;;;;;;6.83;2.10;;;8.90;99.90;;;;;;5001072;28;20213;-80
2022/02/23 10:51:09;;;;;;;5.63;2.03;;;8.90;99.90;;;;;;5003633;28;20213;-81
2022/02/23 10:53:38;;;;;;;6.63;2.60;;;8.80;99.90;;;;;;5008661;28;20209;-81
2022/02/23 10:56:23;;;;;;;8.97;2.40;;;8.70;99.90;;;;;;4996452;28;20662;-81
2022/02/23 10:59:00;;;;;;;8.87;2.57;;;8.80;99.90;;;;;;5002787;28;20210;-82
2022/02/23 11:01:28;;;;;;;9.77;2.27;;;8.90;99.90;;;;;;5018152;28;20212;-81
2022/02/23 11:03:55;;;;;;;9.00;2.87;;;8.90;99.90;;;;;;5001733;28;20584;-81
2022/02/23 11:06:23;;;;;;;9.77;2.07;;;8.80;99.90;;;;;;5010883;28;20263;-81
2022/02/23 11:08:51;;;;;;;8.17;2.73;;;9.00;99.90;;;;;;5002160;28;20243;-83
2022/02/23 11:11:19;;;;;;;8.13;2.87;;;9.10;99.90;;;;;;5003491;28;20264;-82
2022/02/23 11:13:46;;;;;;;7.83;3.10;;;9.30;99.90;;;;;;5003614;28;20213;-82
2022/02/23 11:16:13;;;;;;;9.43;2.43;;;9.20;99.90;;;;;;5005811;28;20214;-82
2022/02/23 11:18:42;;;;;;;5.83;2.80;;;9.20;99.90;;;;;;5007171;28;20218;-82
2022/02/23 11:21:11;;;;;;;8.07;2.90;;;9.10;99.90;;;;;;5005215;28;20572;-82
2022/02/23 11:23:39;;;;;;;5.87;2.10;;;9.20;99.90;;;;;;5006396;28;20269;-82
2022/02/23 11:26:09;;;;;;;7.27;2.47;;;9.20;99.90;;;;;;5012098;28;20252;-82
2022/02/23 11:28:42;;;;;;;7.67;2.50;;;9.00;99.90;;;;;;5009778;28;20210;-82
2022/02/23 11:31:13;;;;;;;9.77;2.80;;;9.10;99.90;;;;;;5016288;28;20259;-81
2022/02/23 11:33:58;;;;;;;7.53;2.30;;;9.10;99.90;;;;;;5010660;28;20778;-81
2022/02/23 11:36:29;;;;;;;9.20;2.50;;;9.30;99.90;;;;;;5001089;28;20740;-81
2022/02/23 11:38:59;;;;;;;6.10;2.10;;;9.40;99.90;;;;;;5016105;28;20202;-82
2022/02/23 11:41:30;;;;;;;9.10;2.30;;;9.50;99.90;;;;;;5001509;28;20214;-81
2022/02/23 11:44:01;;;;;;;6.33;2.40;;;9.40;99.90;;;;;;5002145;28;20595;-81
2022/02/23 11:46:27;;;;;;;8.50;2.33;;;9.30;99.90;;;;;;5042126;28;20532;-81
2022/02/23 11:49:32;;;;;;;8.17;2.30;;;9.10;99.90;;;;;;4999540;28;20755;-82
2022/02/23 11:52:07;;;;;;;7.17;2.27;;;9.00;99.90;;;;;;4997116;28;20584;-82
2022/02/23 11:55:11;;;;;;;9.50;3.00;;;9.00;99.90;;;;;;5008724;28;20241;-82
2022/02/23 12:01:07;;;;;;;7.67;2.23;;;8.90;99.90;;;;;;5000783;28;20323;-80
2022/02/23 12:03:34;;;;;;;7.07;2.47;;;8.90;99.90;;;;;;5001437;28;20229;-83
2022/02/23 12:06:09;;;;;;;7.57;2.30;;;9.20;99.90;;;;;;5015808;28;20249;-81
2022/02/23 12:08:47;;;;;;;7.30;2.03;;;9.10;99.90;;;;;;4999567;28;20205;-82
2022/02/23 12:11:41;;;;;;;7.13;1.90;;;8.90;99.90;;;;;;5011296;28;20287;-82
2022/02/23 12:14:09;;;;;;;7.53;2.57;;;8.90;99.90;;;;;;5003327;28;20228;-81
2022/02/23 12:16:48;;;;;;;6.40;2.20;;;9.00;99.90;;;;;;4996856;28;20210;-81
2022/02/23 12:19:16;;;;;;;6.53;2.00;;;9.00;99.90;;;;;;5017461;28;20254;-81
2022/02/23 12:21:44;;;;;;;5.70;2.13;;;9.00;99.90;;;;;;5006052;28;20239;-82
2022/02/23 12:24:14;;;;;;;5.87;2.20;;;9.20;99.90;;;;;;5002155;28;20229;-82
2022/02/23 12:26:42;;;;;;;5.83;2.00;;;9.20;99.90;;;;;;5012031;28;20220;-82
2022/02/23 12:29:12;;;;;;;7.20;2.47;;;9.20;99.90;;;;;;4999176;28;20629;-83
2022/02/23 12:31:40;;;;;;;11.60;2.60;;;9.10;99.90;;;;;;5030454;28;20202;-82
2022/02/23 12:34:09;;;;;;;7.27;2.17;;;9.20;99.90;;;;;;4997856;28;20210;-82
2022/02/23 12:36:40;;;;;;;5.63;2.40;;;9.20;99.90;;;;;;5004801;28;20217;-82
2022/02/23 12:39:11;;;;;;;5.60;2.07;;;9.20;99.90;;;;;;5006908;28;20222;-82
2022/02/23 12:41:38;;;;;;;11.23;2.90;;;9.20;99.90;;;;;;4999396;28;20226;-83
2022/02/23 12:44:08;;;;;;;6.87;1.80;;;9.10;99.90;;;;;;5006961;28;20269;-82
2022/02/23 12:46:39;;;;;;;5.20;1.90;;;9.40;99.90;;;;;;5002722;28;20233;-82
2022/02/23 12:49:07;;;;;;;4.30;2.00;;;9.30;99.90;;;;;;5008508;28;20217;-81
2022/02/23 12:51:36;;;;;;;4.17;2.03;;;9.20;99.90;;;;;;5004537;28;20258;-82
2022/02/23 12:54:04;;;;;;;5.07;2.30;;;9.10;99.90;;;;;;5091747;28;20664;-82
2022/02/23 12:56:34;;;;;;;6.20;2.47;;;8.90;99.90;;;;;;5027905;28;20212;-80
2022/02/23 12:59:02;;;;;;;6.37;2.00;;;8.90;99.90;;;;;;5003476;28;20206;-81
2022/02/23 13:01:31;;;;;;;5.00;2.00;;;9.00;99.90;;;;;;5003973;28;20220;-82
2022/02/23 13:04:00;;;;;;;9.57;2.30;;;9.20;99.90;;;;;;5007201;28;20237;-82